sensor_id;sensor_type;location;lat;lon;timestamp;pressure;altitude;pressure_sealevel;temperature
79148;BMP280;68562;51.600;6.524;2023-06-19T00:00:00;1007.6;;;27.9
79148;BMP280;68562;51.600;6.524;2023-06-19T00:05:00;1007.6;;;27.7
79148;BMP280;68562;51.600;6.524;2023-06-19T00:10:00;1007.6;;;27.5
79148;BMP280;68562;51.600;6.524;2023-06-19T00:15:00;1007.6;;;27.5
79148;BMP280;68562;51.600;6.524;2023-06-19T00:20:00;1007.6;;;27.5
79148;BMP280;68562;51.600;6.524;2023-06-19T00:25:00;1007.8;;;27.5
79148;BMP280;68562;51.600;6.524;2023-06-19T00:30:00;1007.8;;;27.4
79148;BMP280;68562;51.600;6.524;2023-06-19T00:35:00;1007.8;;;27.2
79148;BMP280;68562;51.600;6.524;2023-06-19T00:40:00;1007.9;;;27.1
79148;BMP280;68562;51.600;6.524;2023-06-19T00:45:00;1007.9;;;27.0
79148;BMP280;68562;51.600;6.524;2023-06-19T00:50:00;1007.9;;;26.9
79148;BMP280;68562;51.600;6.524;2023-06-19T00:55:00;1008.0;;;26.9
79148;BMP280;68562;51.600;6.524;2023-06-19T01:00:00;1008.0;;;26.8
79148;BMP280;68562;51.600;6.524;2023-06-19T01:05:00;1008.0;;;26.8
79148;BMP280;68562;51.600;6.524;2023-06-19T01:10:02;1008.0;;;26.8
79148;BMP280;68562;51.600;6.524;2023-06-19T01:15:02;1008.0;;;26.7
79148;BMP280;68562;51.600;6.524;2023-06-19T01:20:01;1008.0;;;26.8
79148;BMP280;68562;51.600;6.524;2023-06-19T01:25:00;1008.1;;;26.8
79148;BMP280;68562;51.600;6.524;2023-06-19T01:30:02;1008.0;;;26.8
79148;BMP280;68562;51.600;6.524;2023-06-19T01:35:01;1008.0;;;26.8
79148;BMP280;68562;51.600;6.524;2023-06-19T01:40:02;1008.1;;;26.8
79148;BMP280;68562;51.600;6.524;2023-06-19T01:45:00;1008.1;;;26.6
79148;BMP280;68562;51.600;6.524;2023-06-19T01:50:00;1008.2;;;26.5
79148;BMP280;68562;51.600;6.524;2023-06-19T01:55:00;1008.2;;;26.3
79148;BMP280;68562;51.600;6.524;2023-06-19T02:00:00;1008.2;;;26.2
79148;BMP280;68562;51.600;6.524;2023-06-19T02:05:00;1008.2;;;26.2
79148;BMP280;68562;51.600;6.524;2023-06-19T02:10:00;1008.2;;;26.2
79148;BMP280;68562;51.600;6.524;2023-06-19T02:15:00;1008.3;;;26.1
79148;BMP280;68562;51.600;6.524;2023-06-19T02:20:00;1008.3;;;26.1
79148;BMP280;68562;51.600;6.524;2023-06-19T02:25:00;1008.4;;;26.0
79148;BMP280;68562;51.600;6.524;2023-06-19T02:30:00;1008.5;;;26.0
79148;BMP280;68562;51.600;6.524;2023-06-19T02:35:00;1008.6;;;25.8
79148;BMP280;68562;51.600;6.524;2023-06-19T02:40:00;1008.6;;;25.8
79148;BMP280;68562;51.600;6.524;2023-06-19T02:45:00;1008.7;;;25.7
79148;BMP280;68562;51.600;6.524;2023-06-19T02:50:01;1008.6;;;25.4
79148;BMP280;68562;51.600;6.524;2023-06-19T02:55:00;1008.7;;;25.5
79148;BMP280;68562;51.600;6.524;2023-06-19T03:00:00;1008.7;;;25.4
79148;BMP280;68562;51.600;6.524;2023-06-19T03:05:00;1008.9;;;25.1
79148;BMP280;68562;51.600;6.524;2023-06-19T03:10:00;1008.9;;;25.1
79148;BMP280;68562;51.600;6.524;2023-06-19T03:15:00;1008.8;;;25.1
79148;BMP280;68562;51.600;6.524;2023-06-19T03:20:00;1008.9;;;25.2
79148;BMP280;68562;51.600;6.524;2023-06-19T03:25:00;1009.0;;;24.9
79148;BMP280;68562;51.600;6.524;2023-06-19T03:30:00;1009.0;;;24.5
79148;BMP280;68562;51.600;6.524;2023-06-19T03:35:01;1009.0;;;24.4
79148;BMP280;68562;51.600;6.524;2023-06-19T03:40:00;1009.1;;;24.2
79148;BMP280;68562;51.600;6.524;2023-06-19T03:45:00;1009.2;;;24.2
79148;BMP280;68562;51.600;6.524;2023-06-19T03:50:00;1009.3;;;24.0
79148;BMP280;68562;51.600;6.524;2023-06-19T03:55:00;1009.4;;;23.9
79148;BMP280;68562;51.600;6.524;2023-06-19T04:00:00;1009.4;;;23.8
79148;BMP280;68562;51.600;6.524;2023-06-19T04:05:00;1009.5;;;23.5
79148;BMP280;68562;51.600;6.524;2023-06-19T04:10:00;1009.6;;;23.5
79148;BMP280;68562;51.600;6.524;2023-06-19T04:15:00;1009.6;;;23.6
79148;BMP280;68562;51.600;6.524;2023-06-19T04:20:00;1009.7;;;23.6
79148;BMP280;68562;51.600;6.524;2023-06-19T04:25:00;1009.7;;;23.6
79148;BMP280;68562;51.600;6.524;2023-06-19T04:30:01;1009.8;;;23.7
79148;BMP280;68562;51.600;6.524;2023-06-19T04:35:00;1009.8;;;24.0
79148;BMP280;68562;51.600;6.524;2023-06-19T04:40:00;1009.9;;;24.2
79148;BMP280;68562;51.600;6.524;2023-06-19T04:45:00;1010.0;;;24.2
79148;BMP280;68562;51.600;6.524;2023-06-19T04:50:00;1010.1;;;24.1
79148;BMP280;68562;51.600;6.524;2023-06-19T04:55:00;1010.1;;;24.0
79148;BMP280;68562;51.600;6.524;2023-06-19T05:00:00;1010.2;;;24.3
79148;BMP280;68562;51.600;6.524;2023-06-19T05:05:00;1010.3;;;24.4
79148;BMP280;68562;51.600;6.524;2023-06-19T05:10:00;1010.3;;;24.6
79148;BMP280;68562;51.600;6.524;2023-06-19T05:15:00;1010.3;;;24.7
79148;BMP280;68562;51.600;6.524;2023-06-19T05:20:00;1010.5;;;24.7
79148;BMP280;68562;51.600;6.524;2023-06-19T05:25:00;1010.4;;;24.7
79148;BMP280;68562;51.600;6.524;2023-06-19T05:30:00;1010.5;;;24.7
79148;BMP280;68562;51.600;6.524;2023-06-19T05:35:00;1010.5;;;24.7
79148;BMP280;68562;51.600;6.524;2023-06-19T05:40:00;1010.5;;;24.5
79148;BMP280;68562;51.600;6.524;2023-06-19T05:45:00;1010.5;;;24.8
79148;BMP280;68562;51.600;6.524;2023-06-19T05:50:00;1010.5;;;24.7
79148;BMP280;68562;51.600;6.524;2023-06-19T05:55:00;1010.4;;;24.7
79148;BMP280;68562;51.600;6.524;2023-06-19T06:00:00;1010.4;;;24.9
79148;BMP280;68562;51.600;6.524;2023-06-19T06:05:00;1010.4;;;25.0
79148;BMP280;68562;51.600;6.524;2023-06-19T06:10:00;1010.5;;;25.2
79148;BMP280;68562;51.600;6.524;2023-06-19T06:15:00;1010.6;;;25.2
79148;BMP280;68562;51.600;6.524;2023-06-19T06:20:00;1010.6;;;25.3
79148;BMP280;68562;51.600;6.524;2023-06-19T06:25:00;1010.7;;;25.5
79148;BMP280;68562;51.600;6.524;2023-06-19T06:30:00;1010.7;;;25.4
79148;BMP280;68562;51.600;6.524;2023-06-19T06:35:00;1010.7;;;25.5
79148;BMP280;68562;51.600;6.524;2023-06-19T06:40:00;1010.7;;;25.4
79148;BMP280;68562;51.600;6.524;2023-06-19T06:45:00;1010.8;;;25.4
79148;BMP280;68562;51.600;6.524;2023-06-19T06:50:00;1010.9;;;25.6
79148;BMP280;68562;51.600;6.524;2023-06-19T06:55:00;1010.9;;;25.4
79148;BMP280;68562;51.600;6.524;2023-06-19T07:00:00;1010.9;;;25.5
79148;BMP280;68562;51.600;6.524;2023-06-19T07:05:00;1011.0;;;25.7
79148;BMP280;68562;51.600;6.524;2023-06-19T07:10:00;1011.1;;;25.6
79148;BMP280;68562;51.600;6.524;2023-06-19T07:15:00;1011.2;;;25.7
79148;BMP280;68562;51.600;6.524;2023-06-19T07:20:00;1011.2;;;25.9
79148;BMP280;68562;51.600;6.524;2023-06-19T07:25:00;1011.3;;;26.0
79148;BMP280;68562;51.600;6.524;2023-06-19T07:30:00;1011.4;;;26.1
79148;BMP280;68562;51.600;6.524;2023-06-19T07:35:00;1011.4;;;26.2
79148;BMP280;68562;51.600;6.524;2023-06-19T07:40:00;1011.3;;;25.9
79148;BMP280;68562;51.600;6.524;2023-06-19T07:45:00;1011.3;;;26.1
79148;BMP280;68562;51.600;6.524;2023-06-19T07:50:00;1011.3;;;26.3
79148;BMP280;68562;51.600;6.524;2023-06-19T07:55:00;1011.3;;;26.4
79148;BMP280;68562;51.600;6.524;2023-06-19T08:00:00;1011.3;;;26.6
79148;BMP280;68562;51.600;6.524;2023-06-19T08:05:00;1011.3;;;26.7
79148;BMP280;68562;51.600;6.524;2023-06-19T08:10:00;1011.4;;;26.8
79148;BMP280;68562;51.600;6.524;2023-06-19T08:15:00;1011.3;;;26.9
79148;BMP280;68562;51.600;6.524;2023-06-19T08:20:00;1011.4;;;26.9
79148;BMP280;68562;51.600;6.524;2023-06-19T08:25:00;1011.3;;;26.9
79148;BMP280;68562;51.600;6.524;2023-06-19T08:30:00;1011.3;;;27.3
79148;BMP280;68562;51.600;6.524;2023-06-19T08:35:00;1011.1;;;27.8
79148;BMP280;68562;51.600;6.524;2023-06-19T08:40:00;1011.1;;;28.3
79148;BMP280;68562;51.600;6.524;2023-06-19T08:45:00;1011.2;;;28.6
79148;BMP280;68562;51.600;6.524;2023-06-19T08:50:00;1011.3;;;28.5
79148;BMP280;68562;51.600;6.524;2023-06-19T08:55:00;1011.4;;;28.5
79148;BMP280;68562;51.600;6.524;2023-06-19T09:00:00;1011.5;;;28.5
79148;BMP280;68562;51.600;6.524;2023-06-19T09:05:08;1011.6;;;28.4
79148;BMP280;68562;51.600;6.524;2023-06-19T09:10:12;1011.6;;;28.2
79148;BMP280;68562;51.600;6.524;2023-06-19T09:15:00;1011.6;;;28.1
79148;BMP280;68562;51.600;6.524;2023-06-19T09:20:02;1011.6;;;28.2
79148;BMP280;68562;51.600;6.524;2023-06-19T09:25:00;1011.6;;;28.4
79148;BMP280;68562;51.600;6.524;2023-06-19T09:30:00;1011.6;;;28.6
79148;BMP280;68562;51.600;6.524;2023-06-19T09:35:00;1011.6;;;29.1
79148;BMP280;68562;51.600;6.524;2023-06-19T09:40:02;1011.6;;;29.6
79148;BMP280;68562;51.600;6.524;2023-06-19T09:45:02;1011.6;;;30.0
79148;BMP280;68562;51.600;6.524;2023-06-19T09:50:01;1011.6;;;30.2
79148;BMP280;68562;51.600;6.524;2023-06-19T09:55:02;1011.7;;;30.5
79148;BMP280;68562;51.600;6.524;2023-06-19T10:00:03;1011.8;;;30.7
79148;BMP280;68562;51.600;6.524;2023-06-19T10:05:00;1011.9;;;30.8
79148;BMP280;68562;51.600;6.524;2023-06-19T10:10:02;1011.9;;;30.8
79148;BMP280;68562;51.600;6.524;2023-06-19T10:15:08;1011.9;;;30.8
79148;BMP280;68562;51.600;6.524;2023-06-19T10:20:00;1011.9;;;31.0
79148;BMP280;68562;51.600;6.524;2023-06-19T10:25:00;1011.9;;;31.9
79148;BMP280;68562;51.600;6.524;2023-06-19T10:35:00;1011.9;;;32.7
79148;BMP280;68562;51.600;6.524;2023-06-19T10:40:00;1011.9;;;32.8
79148;BMP280;68562;51.600;6.524;2023-06-19T10:45:02;1011.9;;;33.3
79148;BMP280;68562;51.600;6.524;2023-06-19T10:50:00;1011.9;;;34.0
79148;BMP280;68562;51.600;6.524;2023-06-19T10:55:00;1011.8;;;33.8
79148;BMP280;68562;51.600;6.524;2023-06-19T11:00:00;1011.8;;;34.4
79148;BMP280;68562;51.600;6.524;2023-06-19T11:05:02;1011.8;;;34.5
79148;BMP280;68562;51.600;6.524;2023-06-19T11:10:00;1011.8;;;33.9
79148;BMP280;68562;51.600;6.524;2023-06-19T11:15:03;1011.7;;;34.7
79148;BMP280;68562;51.600;6.524;2023-06-19T11:20:00;1011.6;;;35.2
79148;BMP280;68562;51.600;6.524;2023-06-19T11:25:02;1011.6;;;35.2
79148;BMP280;68562;51.600;6.524;2023-06-19T11:30:00;1011.6;;;35.7
79148;BMP280;68562;51.600;6.524;2023-06-19T11:35:04;1011.6;;;36.0
79148;BMP280;68562;51.600;6.524;2023-06-19T11:40:00;1011.6;;;35.9
79148;BMP280;68562;51.600;6.524;2023-06-19T11:45:01;1011.6;;;36.1
79148;BMP280;68562;51.600;6.524;2023-06-19T11:50:00;1011.6;;;36.5
79148;BMP280;68562;51.600;6.524;2023-06-19T11:55:00;1011.6;;;36.7
79148;BMP280;68562;51.600;6.524;2023-06-19T12:00:00;1011.6;;;36.0
79148;BMP280;68562;51.600;6.524;2023-06-19T12:05:00;1011.6;;;35.8
79148;BMP280;68562;51.600;6.524;2023-06-19T12:10:00;1011.6;;;35.5
79148;BMP280;68562;51.600;6.524;2023-06-19T12:15:00;1011.5;;;35.7
79148;BMP280;68562;51.600;6.524;2023-06-19T12:20:00;1011.6;;;35.3
79148;BMP280;68562;51.600;6.524;2023-06-19T12:25:00;1011.6;;;35.5
79148;BMP280;68562;51.600;6.524;2023-06-19T12:30:00;1011.5;;;36.1
79148;BMP280;68562;51.600;6.524;2023-06-19T12:35:00;1011.5;;;36.1
79148;BMP280;68562;51.600;6.524;2023-06-19T12:40:00;1011.6;;;36.0
79148;BMP280;68562;51.600;6.524;2023-06-19T12:45:00;1011.6;;;36.2
79148;BMP280;68562;51.600;6.524;2023-06-19T12:50:00;1011.6;;;36.7
79148;BMP280;68562;51.600;6.524;2023-06-19T12:55:00;1011.6;;;37.6
79148;BMP280;68562;51.600;6.524;2023-06-19T13:00:00;1011.6;;;37.9
79148;BMP280;68562;51.600;6.524;2023-06-19T13:05:00;1011.6;;;38.0
79148;BMP280;68562;51.600;6.524;2023-06-19T13:10:00;1011.6;;;37.7
79148;BMP280;68562;51.600;6.524;2023-06-19T13:15:00;1011.5;;;37.8
79148;BMP280;68562;51.600;6.524;2023-06-19T13:20:00;1011.4;;;38.3
79148;BMP280;68562;51.600;6.524;2023-06-19T13:25:00;1011.5;;;38.7
79148;BMP280;68562;51.600;6.524;2023-06-19T13:30:00;1011.4;;;39.3
79148;BMP280;68562;51.600;6.524;2023-06-19T13:35:00;1011.4;;;39.3
79148;BMP280;68562;51.600;6.524;2023-06-19T13:40:00;1011.4;;;39.4
79148;BMP280;68562;51.600;6.524;2023-06-19T13:45:00;1011.5;;;39.5
79148;BMP280;68562;51.600;6.524;2023-06-19T13:50:00;1011.4;;;39.5
79148;BMP280;68562;51.600;6.524;2023-06-19T13:55:00;1011.4;;;39.6
79148;BMP280;68562;51.600;6.524;2023-06-19T14:00:00;1011.4;;;40.2
79148;BMP280;68562;51.600;6.524;2023-06-19T14:05:00;1011.4;;;39.9
79148;BMP280;68562;51.600;6.524;2023-06-19T14:10:00;1011.3;;;40.1
79148;BMP280;68562;51.600;6.524;2023-06-19T14:15:00;1011.3;;;39.9
79148;BMP280;68562;51.600;6.524;2023-06-19T14:20:00;1011.2;;;40.2
79148;BMP280;68562;51.600;6.524;2023-06-19T14:25:00;1011.2;;;40.5
79148;BMP280;68562;51.600;6.524;2023-06-19T14:30:00;1011.2;;;40.3
79148;BMP280;68562;51.600;6.524;2023-06-19T14:35:00;1011.2;;;40.4
79148;BMP280;68562;51.600;6.524;2023-06-19T14:40:00;1011.2;;;40.2
79148;BMP280;68562;51.600;6.524;2023-06-19T14:45:00;1011.2;;;40.5
79148;BMP280;68562;51.600;6.524;2023-06-19T14:50:00;1011.1;;;41.0
79148;BMP280;68562;51.600;6.524;2023-06-19T14:55:00;1011.1;;;40.6
79148;BMP280;68562;51.600;6.524;2023-06-19T15:00:00;1011.1;;;39.9
79148;BMP280;68562;51.600;6.524;2023-06-19T15:05:00;1011.1;;;40.0
79148;BMP280;68562;51.600;6.524;2023-06-19T15:10:00;1011.1;;;40.3
79148;BMP280;68562;51.600;6.524;2023-06-19T15:15:00;1011.1;;;40.4
79148;BMP280;68562;51.600;6.524;2023-06-19T15:20:00;1011.0;;;39.9
79148;BMP280;68562;51.600;6.524;2023-06-19T15:25:00;1011.0;;;39.3
79148;BMP280;68562;51.600;6.524;2023-06-19T15:30:00;1011.0;;;38.9
79148;BMP280;68562;51.600;6.524;2023-06-19T15:35:00;1011.0;;;38.3
79148;BMP280;68562;51.600;6.524;2023-06-19T15:40:00;1011.0;;;37.7
79148;BMP280;68562;51.600;6.524;2023-06-19T15:45:00;1011.0;;;37.3
79148;BMP280;68562;51.600;6.524;2023-06-19T15:50:00;1011.0;;;36.9
79148;BMP280;68562;51.600;6.524;2023-06-19T15:55:00;1011.0;;;36.7
79148;BMP280;68562;51.600;6.524;2023-06-19T16:00:00;1011.0;;;36.4
79148;BMP280;68562;51.600;6.524;2023-06-19T16:05:00;1010.9;;;36.5
79148;BMP280;68562;51.600;6.524;2023-06-19T16:10:00;1010.9;;;36.8
79148;BMP280;68562;51.600;6.524;2023-06-19T16:15:00;1010.8;;;36.7
79148;BMP280;68562;51.600;6.524;2023-06-19T16:20:00;1010.8;;;36.2
79148;BMP280;68562;51.600;6.524;2023-06-19T16:25:00;1010.8;;;36.1
79148;BMP280;68562;51.600;6.524;2023-06-19T16:30:00;1010.8;;;35.9
79148;BMP280;68562;51.600;6.524;2023-06-19T16:35:00;1010.7;;;35.4
79148;BMP280;68562;51.600;6.524;2023-06-19T16:40:00;1010.8;;;35.2
79148;BMP280;68562;51.600;6.524;2023-06-19T16:45:00;1010.8;;;34.9
79148;BMP280;68562;51.600;6.524;2023-06-19T16:50:01;1010.8;;;34.8
79148;BMP280;68562;51.600;6.524;2023-06-19T16:55:00;1010.8;;;34.7
79148;BMP280;68562;51.600;6.524;2023-06-19T17:00:00;1010.8;;;34.8
79148;BMP280;68562;51.600;6.524;2023-06-19T17:05:00;1010.8;;;34.8
79148;BMP280;68562;51.600;6.524;2023-06-19T17:10:00;1010.8;;;34.8
79148;BMP280;68562;51.600;6.524;2023-06-19T17:15:00;1010.8;;;34.8
79148;BMP280;68562;51.600;6.524;2023-06-19T17:20:00;1010.9;;;34.8
79148;BMP280;68562;51.600;6.524;2023-06-19T17:25:00;1010.9;;;34.5
79148;BMP280;68562;51.600;6.524;2023-06-19T17:30:00;1010.8;;;34.4
79148;BMP280;68562;51.600;6.524;2023-06-19T17:35:00;1010.8;;;34.4
79148;BMP280;68562;51.600;6.524;2023-06-19T17:40:00;1010.8;;;34.3
79148;BMP280;68562;51.600;6.524;2023-06-19T17:45:00;1010.7;;;34.3
79148;BMP280;68562;51.600;6.524;2023-06-19T17:50:00;1010.7;;;34.2
79148;BMP280;68562;51.600;6.524;2023-06-19T17:55:00;1010.7;;;34.2
79148;BMP280;68562;51.600;6.524;2023-06-19T18:00:00;1010.7;;;34.1
79148;BMP280;68562;51.600;6.524;2023-06-19T18:05:00;1010.6;;;34.1
79148;BMP280;68562;51.600;6.524;2023-06-19T18:10:00;1010.6;;;34.0
79148;BMP280;68562;51.600;6.524;2023-06-19T18:15:00;1010.7;;;34.0
79148;BMP280;68562;51.600;6.524;2023-06-19T18:20:00;1010.8;;;34.0
79148;BMP280;68562;51.600;6.524;2023-06-19T18:25:00;1010.8;;;34.0
79148;BMP280;68562;51.600;6.524;2023-06-19T18:30:00;1010.8;;;33.9
79148;BMP280;68562;51.600;6.524;2023-06-19T18:35:00;1010.9;;;33.9
79148;BMP280;68562;51.600;6.524;2023-06-19T18:40:00;1011.0;;;33.8
79148;BMP280;68562;51.600;6.524;2023-06-19T18:45:00;1010.9;;;33.7
79148;BMP280;68562;51.600;6.524;2023-06-19T18:50:00;1010.9;;;33.6
79148;BMP280;68562;51.600;6.524;2023-06-19T18:55:00;1010.9;;;33.5
79148;BMP280;68562;51.600;6.524;2023-06-19T19:00:00;1010.9;;;33.4
79148;BMP280;68562;51.600;6.524;2023-06-19T19:05:00;1010.9;;;33.3
79148;BMP280;68562;51.600;6.524;2023-06-19T19:10:00;1010.9;;;33.1
79148;BMP280;68562;51.600;6.524;2023-06-19T19:15:00;1010.9;;;33.0
79148;BMP280;68562;51.600;6.524;2023-06-19T19:20:00;1010.9;;;32.8
79148;BMP280;68562;51.600;6.524;2023-06-19T19:25:00;1011.0;;;32.7
79148;BMP280;68562;51.600;6.524;2023-06-19T19:30:00;1011.0;;;32.5
79148;BMP280;68562;51.600;6.524;2023-06-19T19:35:00;1011.1;;;32.3
79148;BMP280;68562;51.600;6.524;2023-06-19T19:40:00;1011.2;;;32.1
79148;BMP280;68562;51.600;6.524;2023-06-19T19:45:00;1011.1;;;32.0
79148;BMP280;68562;51.600;6.524;2023-06-19T19:50:00;1011.2;;;31.8
79148;BMP280;68562;51.600;6.524;2023-06-19T19:55:00;1011.2;;;31.6
79148;BMP280;68562;51.600;6.524;2023-06-19T20:00:00;1011.2;;;31.5
79148;BMP280;68562;51.600;6.524;2023-06-19T20:05:00;1011.2;;;31.4
79148;BMP280;68562;51.600;6.524;2023-06-19T20:10:00;1011.3;;;31.2
79148;BMP280;68562;51.600;6.524;2023-06-19T20:15:00;1011.3;;;31.1
79148;BMP280;68562;51.600;6.524;2023-06-19T20:20:00;1011.4;;;30.9
79148;BMP280;68562;51.600;6.524;2023-06-19T20:25:00;1011.4;;;30.7
79148;BMP280;68562;51.600;6.524;2023-06-19T20:30:00;1011.3;;;30.6
79148;BMP280;68562;51.600;6.524;2023-06-19T20:35:00;1011.3;;;30.5
79148;BMP280;68562;51.600;6.524;2023-06-19T20:40:00;1011.4;;;30.4
79148;BMP280;68562;51.600;6.524;2023-06-19T20:45:00;1011.4;;;30.3
79148;BMP280;68562;51.600;6.524;2023-06-19T20:50:00;1011.5;;;30.2
79148;BMP280;68562;51.600;6.524;2023-06-19T20:55:00;1011.5;;;30.1
79148;BMP280;68562;51.600;6.524;2023-06-19T21:00:00;1011.5;;;30.1
79148;BMP280;68562;51.600;6.524;2023-06-19T21:05:00;1011.5;;;30.0
79148;BMP280;68562;51.600;6.524;2023-06-19T21:10:00;1011.6;;;29.9
79148;BMP280;68562;51.600;6.524;2023-06-19T21:15:00;1011.6;;;29.8
79148;BMP280;68562;51.600;6.524;2023-06-19T21:20:00;1011.6;;;29.8
79148;BMP280;68562;51.600;6.524;2023-06-19T21:25:00;1011.5;;;29.7
79148;BMP280;68562;51.600;6.524;2023-06-19T21:30:00;1011.4;;;29.7
79148;BMP280;68562;51.600;6.524;2023-06-19T21:35:00;1011.4;;;29.6
79148;BMP280;68562;51.600;6.524;2023-06-19T21:40:00;1011.4;;;29.6
79148;BMP280;68562;51.600;6.524;2023-06-19T21:45:00;1011.4;;;29.5
79148;BMP280;68562;51.600;6.524;2023-06-19T21:50:00;1011.3;;;29.5
79148;BMP280;68562;51.600;6.524;2023-06-19T21:55:00;1011.2;;;29.5
79148;BMP280;68562;51.600;6.524;2023-06-19T22:00:00;1011.1;;;29.4
79148;BMP280;68562;51.600;6.524;2023-06-19T22:05:00;1011.2;;;29.3
79148;BMP280;68562;51.600;6.524;2023-06-19T22:10:00;1011.1;;;29.3
79148;BMP280;68562;51.600;6.524;2023-06-19T22:15:00;1011.0;;;29.2
79148;BMP280;68562;51.600;6.524;2023-06-19T22:20:00;1011.1;;;29.2
79148;BMP280;68562;51.600;6.524;2023-06-19T22:25:00;1011.1;;;29.1
79148;BMP280;68562;51.600;6.524;2023-06-19T22:30:00;1011.1;;;29.1
79148;BMP280;68562;51.600;6.524;2023-06-19T22:35:00;1011.1;;;29.0
79148;BMP280;68562;51.600;6.524;2023-06-19T22:40:00;1011.2;;;29.0
79148;BMP280;68562;51.600;6.524;2023-06-19T22:45:00;1011.1;;;28.9
79148;BMP280;68562;51.600;6.524;2023-06-19T22:50:00;1011.1;;;28.9
79148;BMP280;68562;51.600;6.524;2023-06-19T22:55:00;1011.1;;;28.9
79148;BMP280;68562;51.600;6.524;2023-06-19T23:00:00;1011.1;;;28.8
79148;BMP280;68562;51.600;6.524;2023-06-19T23:05:00;1011.1;;;28.8
79148;BMP280;68562;51.600;6.524;2023-06-19T23:10:00;1011.1;;;28.7
79148;BMP280;68562;51.600;6.524;2023-06-19T23:15:00;1011.1;;;28.6
79148;BMP280;68562;51.600;6.524;2023-06-19T23:20:00;1011.1;;;28.6
79148;BMP280;68562;51.600;6.524;2023-06-19T23:25:00;1011.0;;;28.5
79148;BMP280;68562;51.600;6.524;2023-06-19T23:30:00;1011.0;;;28.5
79148;BMP280;68562;51.600;6.524;2023-06-19T23:35:00;1011.0;;;28.4
79148;BMP280;68562;51.600;6.524;2023-06-19T23:40:00;1010.9;;;28.4
79148;BMP280;68562;51.600;6.524;2023-06-19T23:45:00;1010.9;;;28.4
79148;BMP280;68562;51.600;6.524;2023-06-19T23:50:00;1010.8;;;28.3
79148;BMP280;68562;51.600;6.524;2023-06-19T23:55:00;1010.8;;;28.3
